Time;durP1;ratioP1;P1;durP2;ratioP2;P2;SDS_P1;SDS_P2;PMS_P1;PMS_P2;Temp;Humidity;BMP_temperature;BMP_pressure;BME280_temperature;BME280_humidity;BME280_pressure;Samples;Min_cycle;Max_cycle;Signal;HPM_P1;HPM_P2
2023/03/30 03:14:23;;;;;;;8.05;2.38;;;;;;;14.44;57.67;99736.38;10705065;23;19935;-69
2023/03/30 03:19:26;;;;;;;3.28;1.35;;;;;;;14.39;58.07;99732.66;10112361;29;20150;-70
2023/03/30 03:24:28;;;;;;;6.03;1.65;;;;;;;14.38;58.06;99748.06;10107566;29;20093;-70
2023/03/30 03:29:29;;;;;;;5.75;1.63;;;;;;;14.35;58.57;99729.56;10099821;29;20065;-70
2023/03/30 03:34:31;;;;;;;8.75;1.58;;;;;;;14.35;58.34;99748.50;10109735;29;20065;-70
2023/03/30 03:39:34;;;;;;;7.35;1.48;;;;;;;14.37;58.15;99751.81;10108542;29;20062;-70
2023/03/30 03:44:36;;;;;;;6.15;1.20;;;;;;;14.39;58.03;99692.94;10108865;29;20049;-70
2023/03/30 03:49:38;;;;;;;3.83;1.60;;;;;;;14.55;57.95;99655.59;10088138;29;20038;-69
2023/03/30 03:54:39;;;;;;;8.30;2.00;;;;;;;14.34;58.98;99629.78;10071291;29;20070;-70
2023/03/30 03:59:41;;;;;;;6.78;1.95;;;;;;;13.89;60.75;99599.03;10074092;29;20079;-69
2023/03/30 04:04:43;;;;;;;10.05;1.50;;;;;;;13.75;61.72;99629.88;10065857;29;20102;-69
2023/03/30 04:09:44;;;;;;;4.80;1.45;;;;;;;13.65;62.22;99626.81;10086620;29;20075;-69
2023/03/30 04:14:46;;;;;;;7.10;1.67;;;;;;;13.57;62.50;99619.78;10062539;29;20041;-70
2023/03/30 04:19:52;;;;;;;6.43;2.78;;;;;;;13.60;62.40;99599.59;10075562;29;20053;-70
2023/03/30 04:24:54;;;;;;;4.93;1.80;;;;;;;13.73;61.94;99596.84;10109355;29;20048;-69
2023/03/30 04:29:58;;;;;;;12.13;1.67;;;;;;;13.86;62.09;99594.09;10121366;29;20168;-68
2023/03/30 04:35:00;;;;;;;5.93;1.67;;;;;;;13.90;62.20;99599.84;10125862;29;20112;-69
2023/03/30 04:40:08;;;;;;;4.80;2.22;;;;;;;13.91;62.76;99593.44;10110842;29;20517;-69
2023/03/30 04:45:09;;;;;;;;;;;;;;;13.86;62.38;99601.34;10093616;29;20049;-69
2023/03/30 04:50:11;;;;;;;18.10;3.38;;;;;;;13.81;63.64;99588.50;10077649;29;19973;-69
2023/03/30 04:55:13;;;;;;;10.80;2.72;;;;;;;13.76;64.40;99582.06;10116695;29;20045;-68
2023/03/30 05:00:16;;;;;;;10.57;2.55;;;;;;;13.74;65.20;99555.28;10122866;29;20037;-69
2023/03/30 05:05:17;;;;;;;7.20;1.50;;;;;;;13.71;64.49;99571.09;10128366;29;20156;-70
2023/03/30 05:10:19;;;;;;;4.55;1.65;;;;;;;13.56;64.50;99577.59;10078145;29;20487;-71
2023/03/30 05:15:21;;;;;;;4.80;1.30;;;;;;;13.44;65.15;99595.50;10078199;29;20068;-71
2023/03/30 05:20:23;;;;;;;6.53;1.88;;;;;;;13.40;65.59;99592.41;10091181;29;20060;-68
2023/03/30 05:25:26;;;;;;;8.65;1.90;;;;;;;13.29;66.29;99591.22;10089052;29;20121;-69
2023/03/30 05:30:27;;;;;;;7.03;2.35;;;;;;;13.10;67.28;99571.28;10087203;29;20053;-68
2023/03/30 05:35:29;;;;;;;6.85;2.10;;;;;;;12.90;67.68;99584.81;10086518;29;20075;-68
2023/03/30 05:40:31;;;;;;;4.20;1.73;;;;;;;12.86;68.25;99588.16;10091243;29;20068;-68
2023/03/30 05:45:32;;;;;;;5.50;2.30;;;;;;;12.80;68.33;99589.81;10112914;29;20056;-67
2023/03/30 05:50:35;;;;;;;9.30;2.08;;;;;;;12.80;68.92;99597.91;10084523;29;20064;-66
2023/03/30 05:55:37;;;;;;;14.55;3.08;;;;;;;12.80;69.43;99622.19;10088846;29;20049;-67
2023/03/30 06:00:40;;;;;;;25.88;3.60;;;;;;;12.80;69.58;99616.78;10084931;29;20065;-68
2023/03/30 06:05:42;;;;;;;10.18;1.85;;;;;;;12.84;69.82;99609.94;10086293;29;20580;-68
2023/03/30 06:10:51;;;;;;;14.57;2.97;;;;;;;12.85;70.38;99587.31;10053947;29;20460;-69
2023/03/30 06:15:52;;;;;;;22.52;3.50;;;;;;;12.88;70.53;99623.84;10092005;29;20458;-68
2023/03/30 06:20:54;;;;;;;5.95;2.38;;;;;;;12.94;71.05;99630.28;10090307;29;20069;-68
2023/03/30 06:25:56;;;;;;;14.68;3.03;;;;;;;12.94;71.52;99647.28;10090943;29;20061;-68
2023/03/30 06:31:00;;;;;;;19.13;2.80;;;;;;;13.03;71.41;99639.78;10065384;29;20053;-68
2023/03/30 06:36:02;;;;;;;13.10;2.25;;;;;;;13.05;71.50;99640.41;10086976;29;20057;-68
2023/03/30 06:41:07;;;;;;;21.70;3.28;;;;;;;13.08;71.76;99642.72;10072731;29;20111;-69
2023/03/30 06:46:10;;;;;;;11.52;1.95;;;;;;;13.11;72.28;99644.97;10130240;29;20053;-69
2023/03/30 06:51:12;;;;;;;49.63;22.00;;;;;;;13.12;72.65;99653.91;10111490;29;20057;-68
2023/03/30 06:56:14;;;;;;;16.40;4.10;;;;;;;13.16;73.20;99629.00;10129411;29;20048;-69
2023/03/30 07:01:15;;;;;;;13.27;2.63;;;;;;;13.22;73.51;99592.22;10109776;29;20060;-68
2023/03/30 07:06:18;;;;;;;11.23;2.42;;;;;;;13.31;73.48;99599.09;10125675;29;20848;-68
2023/03/30 07:11:21;;;;;;;12.05;1.88;;;;;;;13.40;73.31;99608.59;10110575;29;20052;-69
2023/03/30 07:16:24;;;;;;;12.18;2.45;;;;;;;13.54;73.73;99630.16;10132897;29;20041;-68
2023/03/30 07:21:26;;;;;;;6.47;1.52;;;;;;;13.69;74.22;99634.25;10121503;29;20045;-70
2023/03/30 07:26:28;;;;;;;13.90;1.70;;;;;;;13.83;74.56;99640.44;10164177;29;20048;-71
2023/03/30 07:31:30;;;;;;;12.02;2.10;;;;;;;14.00;74.56;99635.38;10166148;29;20037;-70
2023/03/30 07:36:31;;;;;;;9.05;2.05;;;;;;;14.13;73.92;99617.41;10157497;29;20690;-70
2023/03/30 07:41:33;;;;;;;6.88;2.03;;;;;;;14.22;74.23;99599.91;10159842;29;20052;-70
2023/03/30 07:46:34;;;;;;;11.00;3.08;;;;;;;14.36;73.83;99631.19;10163156;29;20036;-71
2023/03/30 07:51:36;;;;;;;6.93;2.08;;;;;;;14.47;73.58;99632.34;10161503;29;20068;-70
2023/03/30 07:56:38;;;;;;;4.95;1.20;;;;;;;14.53;73.76;99609.84;10152730;29;20174;-70
2023/03/30 08:01:39;;;;;;;6.60;1.67;;;;;;;14.70;73.36;99612.88;10145266;29;20052;-69
2023/03/30 08:06:41;;;;;;;9.57;1.60;;;;;;;14.78;73.16;99615.28;10116191;29;20115;-70
2023/03/30 08:11:43;;;;;;;10.48;1.92;;;;;;;14.89;72.84;99621.88;10130550;29;20060;-69
2023/03/30 08:16:44;;;;;;;8.35;2.05;;;;;;;14.92;72.83;99647.66;10124861;29;20056;-71
2023/03/30 08:21:46;;;;;;;9.70;1.70;;;;;;;14.94;72.90;99659.06;10132022;29;20101;-70
2023/03/30 08:26:47;;;;;;;4.68;1.10;;;;;;;15.04;72.44;99654.81;10123755;29;20044;-69
2023/03/30 08:31:52;;;;;;;5.95;1.08;;;;;;;15.18;72.25;99662.81;10121179;29;20123;-70
2023/03/30 08:36:54;;;;;;;9.85;2.20;;;;;;;15.31;72.06;99661.88;10124843;29;20057;-71
2023/03/30 08:41:58;;;;;;;7.88;2.10;;;;;;;15.48;71.85;99662.91;10122007;29;20080;-71
2023/03/30 08:47:03;;;;;;;7.97;1.27;;;;;;;15.62;71.79;99629.22;10123886;29;20139;-70
2023/03/30 08:52:05;;;;;;;10.13;2.35;;;;;;;15.88;71.44;99632.69;10121276;29;20071;-71
2023/03/30 08:57:41;;;;;;;6.03;2.20;;;;;;;16.17;70.70;99636.47;10130781;29;20048;-71
2023/03/30 09:02:46;;;;;;;7.03;1.42;;;;;;;16.29;70.54;99628.34;10075622;29;20128;-71
2023/03/30 09:08:02;;;;;;;5.50;1.55;;;;;;;16.45;69.76;99641.25;10130463;29;20505;-71
2023/03/30 09:13:05;;;;;;;6.20;1.77;;;;;;;16.45;69.58;99635.81;10127746;29;20075;-71
2023/03/30 09:18:20;;;;;;;8.40;1.20;;;;;;;16.54;68.88;99643.63;10131437;29;20576;-70
2023/03/30 09:23:23;;;;;;;7.13;1.40;;;;;;;16.63;69.04;99626.78;10130409;29;20045;-71
2023/03/30 09:29:09;;;;;;;5.28;1.70;;;;;;;16.59;68.68;99627.47;10124989;29;20048;-71
2023/03/30 09:34:34;;;;;;;3.35;1.42;;;;;;;16.56;68.62;99634.19;10118188;29;20052;-71
2023/03/30 09:39:37;;;;;;;3.05;1.60;;;;;;;16.58;68.44;99644.81;10115075;29;20037;-73
2023/03/30 09:44:51;;;;;;;4.78;1.30;;;;;;;16.60;67.82;99646.22;10128545;29;20055;-73
2023/03/30 09:50:01;;;;;;;5.20;1.40;;;;;;;16.56;67.67;99633.38;10118892;29;20060;-74
2023/03/30 09:55:21;;;;;;;5.50;1.17;;;;;;;16.70;67.38;99634.78;10122853;29;20136;-73
2023/03/30 10:00:22;;;;;;;4.47;1.13;;;;;;;16.74;67.46;99633.25;10118704;29;20044;-72
2023/03/30 10:05:25;;;;;;;4.57;1.20;;;;;;;16.76;66.89;99630.31;10106148;29;20049;-79
2023/03/30 10:10:31;;;;;;;2.78;1.33;;;;;;;16.94;66.53;99613.13;10139777;29;20055;-73
2023/03/30 10:15:37;;;;;;;6.97;1.20;;;;;;;17.00;66.67;99626.59;10113593;29;20048;-74
2023/03/30 10:20:40;;;;;;;4.03;1.50;;;;;;;17.11;66.56;99613.25;10099492;29;20052;-73
2023/03/30 10:25:42;;;;;;;4.95;1.20;;;;;;;17.21;66.24;99613.47;10102617;29;20053;-73
2023/03/30 10:31:14;;;;;;;3.92;1.00;;;;;;;17.37;65.88;99607.31;10131275;29;20055;-73
2023/03/30 10:36:18;;;;;;;6.13;1.63;;;;;;;17.73;64.88;99605.34;10122303;29;20551;-75
2023/03/30 10:41:22;;;;;;;5.22;1.08;;;;;;;17.69;64.63;99609.59;10141340;29;20159;-74
2023/03/30 10:46:23;;;;;;;4.97;1.10;;;;;;;17.59;64.78;99621.06;10116305;29;20044;-73
2023/03/30 10:51:28;;;;;;;9.18;1.35;;;;;;;17.50;64.91;99611.66;10139088;29;20393;-70
2023/03/30 10:56:38;;;;;;;4.28;0.85;;;;;;;17.53;64.10;99604.91;10130546;29;20086;-72
2023/03/30 11:01:52;;;;;;;6.22;0.95;;;;;;;17.69;63.26;99608.78;10134284;29;20063;-72
2023/03/30 11:06:56;;;;;;;8.18;1.55;;;;;;;18.15;63.16;99598.81;10105770;29;20594;-71
2023/03/30 11:12:03;;;;;;;2.13;0.80;;;;;;;18.33;62.46;99592.34;10118299;29;20506;-72
2023/03/30 11:17:11;;;;;;;4.60;0.80;;;;;;;18.37;61.18;99591.59;10100148;29;20087;-72
2023/03/30 11:22:30;;;;;;;6.72;1.25;;;;;;;18.33;60.71;99601.31;10124308;29;20075;-72
2023/03/30 11:27:42;;;;;;;3.28;0.70;;;;;;;18.31;60.19;99589.03;10128863;29;20052;-72
2023/03/30 11:32:56;;;;;;;4.30;1.10;;;;;;;18.27;59.71;99585.97;10118984;29;20092;-71
2023/03/30 11:38:11;;;;;;;2.95;0.90;;;;;;;18.50;58.94;99571.38;10124516;29;20072;-72
2023/03/30 11:43:15;;;;;;;5.78;0.95;;;;;;;18.83;57.53;99542.50;10119490;29;20100;-72
2023/03/30 11:48:39;;;;;;;4.32;0.52;;;;;;;19.34;55.61;99550.56;10127811;29;20590;-71
2023/03/30 11:54:03;;;;;;;3.33;0.43;;;;;;;19.50;52.97;99571.47;10119874;29;20048;-72
2023/03/30 11:59:34;;;;;;;4.45;0.70;;;;;;;19.89;52.04;99586.94;10118945;29;20056;-69
2023/03/30 12:04:55;;;;;;;3.05;0.47;;;;;;;20.09;51.74;99570.78;10110306;29;20516;-71
2023/03/30 12:10:05;;;;;;;3.30;0.65;;;;;;;20.13;50.84;99576.53;10125670;29;20132;-72
2023/03/30 12:15:42;;;;;;;2.50;0.40;;;;;;;20.46;50.27;99591.84;10112348;29;20052;-73
2023/03/30 12:20:52;;;;;;;2.22;0.38;;;;;;;20.30;50.03;99600.97;10094538;29;20140;-71
2023/03/30 12:26:29;;;;;;;3.13;0.38;;;;;;;19.32;51.75;99602.59;10119715;29;20072;-71
2023/03/30 12:32:02;;;;;;;2.50;0.45;;;;;;;19.78;51.37;99607.81;10115053;29;20064;-72
2023/03/30 12:37:11;;;;;;;1.48;0.20;;;;;;;20.46;48.32;99605.50;10117815;29;20514;-72
2023/03/30 12:42:36;;;;;;;5.35;0.30;;;;;;;20.85;47.35;99616.22;10127390;29;20060;-71
2023/03/30 12:47:45;;;;;;;3.35;0.50;;;;;;;20.58;46.87;99630.72;10116857;29;20070;-72
2023/03/30 12:52:58;;;;;;;3.10;0.03;;;;;;;19.91;47.76;99640.16;10130101;29;20048;-72
2023/03/30 12:58:26;;;;;;;1.42;0.10;;;;;;;18.71;49.15;99635.16;10130576;29;20473;-71
2023/03/30 13:03:48;;;;;;;1.02;0.10;;;;;;;17.82;50.55;99638.41;10129330;29;20168;-71
2023/03/30 13:08:54;;;;;;;0.60;0.05;;;;;;;16.79;53.13;99660.53;10119483;29;20096;-71
2023/03/30 13:13:58;;;;;;;1.92;0.10;;;;;;;16.15;55.89;99683.81;10129515;29;20107;-69
2023/03/30 13:19:12;;;;;;;0.88;0.25;;;;;;;15.56;59.24;99670.75;10130497;29;20096;-71
2023/03/30 13:24:40;;;;;;;0.85;0.32;;;;;;;16.33;58.17;99653.09;10127644;29;20045;-72
2023/03/30 13:29:54;;;;;;;1.90;0.20;;;;;;;17.01;56.07;99657.28;10103430;29;20049;-71
2023/03/30 13:35:29;;;;;;;0.68;0.10;;;;;;;17.10;55.59;99658.59;10127459;29;20099;-70
2023/03/30 13:40:45;;;;;;;0.77;0.10;;;;;;;16.80;55.38;99683.06;10129153;29;20045;-69
2023/03/30 13:46:34;;;;;;;0.75;0.10;;;;;;;16.45;56.00;99676.53;10136468;29;20059;-69
2023/03/30 13:51:41;;;;;;;0.60;0.10;;;;;;;15.42;60.09;99680.06;10127207;29;20415;-68
2023/03/30 13:56:47;;;;;;;2.50;0.10;;;;;;;14.54;64.29;99679.13;10140003;29;20111;-69
2023/03/30 14:01:55;;;;;;;1.43;0.10;;;;;;;14.38;65.56;99694.00;10130855;29;20317;-69
2023/03/30 14:06:57;;;;;;;2.00;0.20;;;;;;;14.39;66.64;99698.34;10119236;29;20932;-69
2023/03/30 14:12:04;;;;;;;1.27;0.10;;;;;;;14.45;66.27;99675.88;10142963;29;20063;-71
2023/03/30 14:17:17;;;;;;;0.65;0.10;;;;;;;14.58;65.85;99685.78;10122223;29;20056;-71
2023/03/30 14:22:26;;;;;;;1.75;0.20;;;;;;;14.78;65.69;99684.81;10140722;29;20060;-71
2023/03/30 14:27:37;;;;;;;5.28;0.30;;;;;;;14.90;65.75;99699.28;10141158;29;20048;-70
2023/03/30 14:32:39;;;;;;;2.15;0.30;;;;;;;15.04;65.82;99716.25;10134795;29;20508;-70
2023/03/30 14:37:41;;;;;;;3.08;0.10;;;;;;;15.01;65.83;99732.94;10124013;29;20076;-69
2023/03/30 14:42:43;;;;;;;1.13;0.45;;;;;;;14.65;67.39;99739.81;10117982;29;20041;-70
2023/03/30 14:47:46;;;;;;;3.95;0.20;;;;;;;14.74;68.23;99722.28;10119443;29;20060;-70
2023/03/30 14:52:51;;;;;;;2.42;0.28;;;;;;;15.51;67.39;99699.56;10125701;29;20053;-70
2023/03/30 14:57:54;;;;;;;2.08;0.77;;;;;;;15.47;67.28;99700.00;10124786;29;20048;-69
2023/03/30 15:02:59;;;;;;;0.57;0.20;;;;;;;15.53;67.01;99692.88;10117694;29;20045;-70
2023/03/30 15:08:02;;;;;;;3.35;0.43;;;;;;;15.70;66.59;99686.84;10139751;29;20523;-70
2023/03/30 15:13:06;;;;;;;1.23;0.20;;;;;;;15.63;66.23;99697.75;10123635;29;20093;-69
2023/03/30 15:18:20;;;;;;;4.60;0.30;;;;;;;15.72;66.26;99703.69;10118869;29;20048;-69
2023/03/30 15:23:24;;;;;;;1.65;0.22;;;;;;;15.85;65.80;99700.88;10134429;29;20056;-68
2023/03/30 15:28:31;;;;;;;1.38;0.17;;;;;;;16.41;65.34;99699.75;10094086;29;20056;-67
2023/03/30 15:33:35;;;;;;;1.67;0.20;;;;;;;17.32;64.25;99704.16;10126907;29;20044;-70
2023/03/30 15:38:45;;;;;;;1.33;0.20;;;;;;;18.00;62.40;99698.06;10104871;29;20076;-67
2023/03/30 15:43:58;;;;;;;1.35;0.20;;;;;;;17.94;61.28;99692.78;10126901;29;20040;-70
2023/03/30 15:49:01;;;;;;;1.55;0.30;;;;;;;17.95;61.00;99688.97;10110820;29;20097;-71
2023/03/30 15:54:29;;;;;;;3.63;0.40;;;;;;;17.92;60.00;99687.56;10120177;29;20404;-71
2023/03/30 15:59:34;;;;;;;;;;;;;;;17.98;60.98;99689.34;10106249;29;20928;-71
2023/03/30 16:04:35;;;;;;;2.50;0.20;;;;;;;17.75;60.81;99678.47;10118606;29;20022;-70
2023/03/30 16:09:36;;;;;;;1.80;0.30;;;;;;;17.70;60.13;99675.69;10124981;29;20705;-70
2023/03/30 16:14:38;;;;;;;1.83;0.30;;;;;;;17.90;58.89;99670.69;10125019;29;20072;-70
2023/03/30 16:19:40;;;;;;;1.88;0.25;;;;;;;17.91;57.02;99663.34;10106800;29;20187;-70
2023/03/30 16:24:42;;;;;;;1.98;0.52;;;;;;;17.78;56.27;99664.44;10121835;29;20045;-69
2023/03/30 16:29:43;;;;;;;3.17;0.30;;;;;;;17.78;55.10;99662.53;10123402;29;20056;-70
2023/03/30 16:34:45;;;;;;;2.55;0.17;;;;;;;17.66;53.89;99667.16;10117996;29;20076;-69
2023/03/30 16:39:47;;;;;;;3.85;0.40;;;;;;;17.70;52.31;99667.53;10120554;29;20089;-70
2023/03/30 16:44:48;;;;;;;2.72;0.35;;;;;;;17.97;52.88;99668.66;10118989;29;20583;-70
2023/03/30 16:49:50;;;;;;;2.05;0.20;;;;;;;17.74;52.02;99653.19;10118448;29;20072;-71
2023/03/30 16:54:52;;;;;;;1.52;0.30;;;;;;;17.56;51.40;99661.53;10122912;29;20044;-71
2023/03/30 16:59:53;;;;;;;2.50;0.40;;;;;;;17.50;51.25;99654.31;10121256;29;20080;-72
2023/03/30 17:04:54;;;;;;;1.90;0.20;;;;;;;17.40;51.22;99669.34;10128653;29;20091;-71
2023/03/30 17:09:56;;;;;;;2.33;0.40;;;;;;;17.28;51.33;99678.53;10122176;29;20107;-69
2023/03/30 17:14:58;;;;;;;2.15;0.25;;;;;;;17.16;51.94;99681.25;10127472;29;20047;-69
2023/03/30 17:20:17;;;;;;;2.50;0.30;;;;;;;16.83;52.32;99690.81;10132966;29;20051;-66
2023/03/30 17:25:22;;;;;;;0.75;0.40;;;;;;;16.58;52.34;99688.22;10136001;29;20072;-67
2023/03/30 17:30:27;;;;;;;2.55;0.20;;;;;;;16.33;52.87;99700.06;10124232;29;20044;-66
2023/03/30 17:35:28;;;;;;;0.63;0.30;;;;;;;16.19;53.05;99720.25;10135446;29;20049;-67
2023/03/30 17:40:31;;;;;;;1.80;0.22;;;;;;;16.04;53.67;99713.38;10117893;29;20055;-66
2023/03/30 17:45:34;;;;;;;1.98;0.22;;;;;;;15.91;54.34;99720.84;10122308;29;20057;-67
2023/03/30 17:50:38;;;;;;;5.28;1.33;;;;;;;15.80;54.68;99715.13;10137227;29;20044;-66
2023/03/30 17:55:40;;;;;;;1.40;0.10;;;;;;;15.65;55.08;99720.88;10099769;29;20060;-67
2023/03/30 18:00:41;;;;;;;4.20;0.95;;;;;;;15.63;55.00;99722.16;10102007;29;20083;-66
2023/03/30 18:05:43;;;;;;;3.83;0.20;;;;;;;15.60;55.43;99728.00;10113905;29;20050;-66
2023/03/30 18:10:47;;;;;;;4.18;1.25;;;;;;;15.51;55.60;99727.47;10140382;29;20052;-70
2023/03/30 18:15:51;;;;;;;1.98;0.30;;;;;;;15.53;55.65;99728.09;10093147;29;20041;-71
2023/03/30 18:21:01;;;;;;;4.55;0.73;;;;;;;15.55;56.00;99730.56;10100127;29;20305;-69
2023/03/30 18:26:05;;;;;;;7.10;0.80;;;;;;;15.57;56.08;99736.59;10065291;29;20053;-70
2023/03/30 18:31:11;;;;;;;5.20;0.88;;;;;;;15.58;56.62;99739.09;10079139;29;20053;-70
2023/03/30 18:36:13;;;;;;;1.95;0.47;;;;;;;15.22;57.96;99761.50;10079038;29;20100;-69
2023/03/30 18:41:15;;;;;;;4.03;0.40;;;;;;;14.76;59.79;99773.50;10117105;29;20053;-70
2023/03/30 18:46:16;;;;;;;5.28;0.40;;;;;;;14.45;61.32;99759.69;10114571;29;20049;-70
2023/03/30 18:51:19;;;;;;;1.83;0.40;;;;;;;14.32;62.46;99767.88;10090396;29;20045;-70
2023/03/30 18:56:21;;;;;;;4.75;1.27;;;;;;;14.29;63.04;99771.81;10105229;29;20056;-70
2023/03/30 19:01:23;;;;;;;4.57;1.58;;;;;;;14.39;62.62;99776.75;10085905;29;20049;-69
2023/03/30 19:06:24;;;;;;;5.43;0.45;;;;;;;14.48;62.49;99769.25;10104317;29;20053;-69
2023/03/30 19:11:26;;;;;;;4.60;0.60;;;;;;;14.67;62.32;99770.19;10100631;29;20407;-70
2023/03/30 19:16:28;;;;;;;7.57;1.17;;;;;;;14.77;62.43;99758.91;10146312;29;20048;-69
2023/03/30 19:21:29;;;;;;;2.00;0.47;;;;;;;14.93;61.86;99762.94;10158129;29;20076;-69
2023/03/30 19:26:31;;;;;;;2.97;0.43;;;;;;;14.96;61.84;99768.75;10157454;29;20116;-69
2023/03/30 19:31:35;;;;;;;4.40;0.40;;;;;;;14.99;62.02;99764.81;10132842;29;20048;-70
2023/03/30 19:36:36;;;;;;;3.83;1.02;;;;;;;15.01;62.07;99763.53;10114817;29;20040;-69
2023/03/30 19:41:37;;;;;;;5.30;0.50;;;;;;;14.96;62.25;99754.41;10113545;29;20060;-69
2023/03/30 19:46:39;;;;;;;8.05;1.13;;;;;;;14.85;62.28;99751.38;10120171;29;20053;-69
2023/03/30 19:51:41;;;;;;;3.22;0.85;;;;;;;14.76;62.14;99752.66;10138778;29;20164;-69
2023/03/30 19:56:42;;;;;;;6.38;0.60;;;;;;;14.74;62.21;99753.94;10144299;29;20576;-69
2023/03/30 20:01:43;;;;;;;11.45;1.27;;;;;;;14.70;62.03;99760.84;10113687;29;20067;-69
2023/03/30 20:06:45;;;;;;;7.60;1.50;;;;;;;14.73;62.08;99760.38;10126432;29;20146;-70
2023/03/30 20:11:47;;;;;;;5.53;0.77;;;;;;;14.73;61.81;99761.25;10125573;29;20048;-70
2023/03/30 20:16:48;;;;;;;7.03;0.50;;;;;;;14.71;61.71;99760.63;10111801;29;20492;-68
2023/03/30 20:21:50;;;;;;;9.07;0.77;;;;;;;14.73;61.80;99753.13;10105409;29;20681;-70
2023/03/30 20:26:52;;;;;;;10.25;1.60;;;;;;;14.66;61.70;99755.03;10106894;29;20072;-68
2023/03/30 20:31:53;;;;;;;5.18;0.60;;;;;;;14.65;61.61;99756.91;10132647;29;20049;-68
2023/03/30 20:36:54;;;;;;;6.65;0.52;;;;;;;14.69;61.39;99754.56;10129437;29;20104;-69
2023/03/30 20:41:57;;;;;;;3.47;0.32;;;;;;;14.70;61.39;99745.44;10125489;29;20124;-69
2023/03/30 20:46:58;;;;;;;3.13;0.40;;;;;;;14.72;61.55;99739.81;10130091;29;20052;-69
2023/03/30 20:52:00;;;;;;;5.55;0.55;;;;;;;14.71;61.66;99732.72;10135060;29;20044;-70
2023/03/30 20:57:01;;;;;;;4.20;0.50;;;;;;;14.69;61.65;99735.63;10126484;29;20052;-70
2023/03/30 21:02:03;;;;;;;5.65;0.50;;;;;;;14.62;61.99;99724.88;10145842;29;20078;-69
2023/03/30 21:07:05;;;;;;;3.97;0.40;;;;;;;14.53;62.11;99728.03;10153549;29;20044;-69
2023/03/30 21:12:08;;;;;;;2.67;0.40;;;;;;;14.45;62.19;99737.22;10151188;29;20061;-69
2023/03/30 21:17:10;;;;;;;5.18;0.60;;;;;;;14.37;62.45;99721.25;10128191;29;20047;-70
2023/03/30 21:22:11;;;;;;;4.05;0.45;;;;;;;14.35;62.51;99734.97;10134717;29;20051;-70
2023/03/30 21:27:13;;;;;;;7.38;1.35;;;;;;;14.38;62.29;99729.16;10119889;29;20481;-71
2023/03/30 21:32:14;;;;;;;2.60;0.43;;;;;;;14.38;62.43;99712.09;10116606;29;20088;-70
2023/03/30 21:37:16;;;;;;;5.03;1.50;;;;;;;14.33;62.55;99707.31;10139795;29;20073;-69
2023/03/30 21:42:17;;;;;;;4.28;0.40;;;;;;;14.37;62.38;99713.13;10110852;29;20096;-70
2023/03/30 21:47:19;;;;;;;3.38;0.30;;;;;;;14.31;62.59;99712.13;10137181;29;20484;-69
2023/03/30 21:52:20;;;;;;;1.88;0.30;;;;;;;14.34;62.56;99708.19;10136940;29;20052;-69
2023/03/30 21:57:22;;;;;;;3.85;0.35;;;;;;;14.19;62.93;99703.88;10134347;29;20048;-71
2023/03/30 22:02:23;;;;;;;5.13;0.28;;;;;;;14.20;62.94;99693.91;10112123;29;20058;-69
2023/03/30 22:07:25;;;;;;;3.38;0.30;;;;;;;14.30;62.54;99688.84;10096851;29;20049;-70
2023/03/30 22:12:26;;;;;;;2.83;0.30;;;;;;;14.36;62.37;99689.84;10125496;29;20114;-71
2023/03/30 22:17:33;;;;;;;4.10;0.40;;;;;;;14.10;63.62;99678.16;10139820;29;20090;-69
2023/03/30 22:22:35;;;;;;;6.22;0.60;;;;;;;13.49;65.53;99660.50;10172749;29;20100;-69
2023/03/30 22:27:37;;;;;;;7.47;0.50;;;;;;;13.32;66.66;99652.03;10172901;29;20076;-69
2023/03/30 22:32:39;;;;;;;2.63;0.50;;;;;;;13.18;67.14;99656.59;10164392;29;20059;-69
2023/03/30 22:37:40;;;;;;;4.72;0.63;;;;;;;13.10;67.32;99646.84;10159212;29;20053;-69
2023/03/30 22:42:42;;;;;;;5.05;0.43;;;;;;;12.87;68.52;99649.16;10140509;29;20049;-69
2023/03/30 22:47:43;;;;;;;9.35;0.90;;;;;;;12.74;68.79;99638.34;10132462;29;20041;-70
2023/03/30 22:52:45;;;;;;;4.60;0.50;;;;;;;12.62;69.47;99655.19;10139968;29;20056;-69
2023/03/30 22:57:47;;;;;;;7.72;0.40;;;;;;;12.67;69.08;99635.66;10132994;29;20100;-70
2023/03/30 23:02:49;;;;;;;7.32;0.40;;;;;;;12.70;69.45;99619.91;10117298;29;20041;-69
2023/03/30 23:07:50;;;;;;;3.88;0.32;;;;;;;12.79;69.52;99601.63;10124793;29;20053;-72
2023/03/30 23:12:52;;;;;;;9.15;0.90;;;;;;;12.84;69.08;99609.94;10134226;29;20068;-69
2023/03/30 23:17:55;;;;;;;7.63;0.82;;;;;;;12.90;69.18;99602.88;10116174;29;20057;-71
2023/03/30 23:22:56;;;;;;;5.95;0.63;;;;;;;12.97;69.03;99598.28;10110658;29;20063;-71
2023/03/30 23:27:59;;;;;;;7.60;0.70;;;;;;;13.02;69.23;99585.00;10114736;29;20110;-71
2023/03/30 23:33:01;;;;;;;3.63;0.40;;;;;;;13.05;68.56;99571.13;10126407;29;20048;-71
2023/03/30 23:38:03;;;;;;;7.18;1.08;;;;;;;13.15;68.73;99559.03;10129757;29;20044;-71
2023/03/30 23:43:04;;;;;;;5.28;0.32;;;;;;;13.09;68.72;99564.25;10133859;29;20052;-69
2023/03/30 23:48:06;;;;;;;3.72;0.95;;;;;;;12.82;70.03;99568.03;10140659;29;20044;-70
2023/03/30 23:53:08;;;;;;;4.97;0.60;;;;;;;12.64;70.44;99568.69;10109201;29;20059;-70
2023/03/30 23:58:09;;;;;;;10.40;0.98;;;;;;;12.62;70.70;99568.06;10126167;29;20053;-70
